Terminal Aerodrome Forecast
Issued by NWS

Home | Current Version | Previous Version | Text Only | Print | Product List | Glossary On
Versions: 1 2 3 4 5 6 7 8 9 10 11 12 13 14 15 16 17
823
FTUS46 KSEW 110520
TAFCLM
TAF
KCLM 110520Z 1106/1206 VRB04KT P6SM OVC017
     FM110900 VRB04KT P6SM BKN020 BKN050
     FM111300 09006KT P6SM BKN050
     FM112100 09006KT P6SM -RA OVC040
     FM120000 09006KT 5SM -RA OVC035=

USA.gov is the U.S. government's official web portal to all federal, state and local government web resources and services.